createdAt,value
2023-04-19T00:04:55.736Z,8.94
2023-04-19T00:09:52.214Z,8.85
2023-04-19T00:14:48.562Z,8.78
2023-04-19T00:19:44.934Z,8.76
2023-04-19T00:24:41.373Z,8.78
2023-04-19T00:29:37.706Z,8.73
2023-04-19T00:34:34.212Z,8.77
2023-04-19T00:39:30.731Z,8.80
2023-04-19T00:44:27.500Z,8.82
2023-04-19T00:49:24.281Z,8.76
2023-04-19T00:54:21.129Z,8.70
2023-04-19T00:59:18.365Z,8.71
2023-04-19T01:04:16.145Z,8.71
2023-04-19T01:09:12.822Z,8.59
2023-04-19T01:14:09.196Z,8.57
2023-04-19T01:19:05.690Z,8.53
2023-04-19T01:24:02.061Z,8.48
2023-04-19T01:28:58.469Z,8.29
2023-04-19T01:33:54.956Z,8.25
2023-04-19T01:38:51.383Z,8.25
2023-04-19T01:43:48.240Z,8.12
2023-04-19T01:48:44.600Z,8.04
2023-04-19T01:53:40.979Z,8.03
2023-04-19T01:58:37.390Z,7.82
2023-04-19T02:03:33.964Z,7.61
2023-04-19T02:08:30.544Z,7.59
2023-04-19T02:13:26.895Z,7.53
2023-04-19T02:18:24.286Z,7.43
2023-04-19T02:23:20.748Z,7.30
2023-04-19T02:28:17.279Z,7.19
2023-04-19T02:33:15.679Z,7.18
2023-04-19T02:38:12.255Z,7.14
2023-04-19T02:43:08.594Z,7.07
2023-04-19T02:48:05.392Z,7.04
2023-04-19T02:53:01.824Z,7.04
2023-04-19T02:57:58.153Z,6.91
2023-04-19T03:02:56.119Z,6.96
2023-04-19T03:07:52.616Z,6.90
2023-04-19T03:12:48.955Z,6.82
2023-04-19T03:17:45.368Z,6.73
2023-04-19T03:22:41.699Z,6.62
2023-04-19T03:27:38.073Z,6.59
2023-04-19T03:32:34.564Z,6.59
2023-04-19T03:37:30.900Z,6.58
2023-04-19T03:42:28.966Z,6.58
2023-04-19T03:47:25.768Z,6.46
2023-04-19T03:52:22.104Z,6.27
2023-04-19T03:57:18.529Z,6.26
2023-04-19T04:02:14.954Z,6.15
2023-04-19T04:07:11.432Z,5.92
2023-04-19T04:12:07.788Z,5.62
2023-04-19T04:17:04.451Z,5.51
2023-04-19T04:22:00.784Z,5.52
2023-04-19T04:26:57.928Z,5.38
2023-04-19T04:31:54.314Z,5.23
2023-04-19T04:36:51.082Z,5.07
2023-04-19T04:41:48.479Z,5.05
2023-04-19T04:46:44.839Z,5.05
2023-04-19T04:51:41.245Z,5.05
2023-04-19T04:56:38.056Z,5.02
2023-04-19T05:01:34.678Z,5.00
2023-04-19T05:06:31.105Z,5.01
2023-04-19T05:11:27.612Z,4.96
2023-04-19T05:16:23.971Z,4.87
2023-04-19T05:21:20.807Z,4.79
2023-04-19T05:26:17.263Z,4.78
2023-04-19T05:31:14.120Z,4.84
2023-04-19T05:36:10.571Z,4.95
2023-04-19T05:41:06.968Z,4.87
2023-04-19T05:46:03.465Z,4.92
2023-04-19T05:51:00.021Z,5.02
2023-04-19T05:55:56.431Z,5.16
2023-04-19T06:00:52.900Z,5.19
2023-04-19T06:05:49.455Z,5.32
2023-04-19T06:10:54.493Z,5.37
2023-04-19T06:15:52.020Z,5.46
2023-04-19T06:20:48.463Z,5.47
2023-04-19T06:25:44.999Z,5.84
2023-04-19T06:30:41.363Z,5.99
2023-04-19T06:35:38.031Z,6.06
2023-04-19T06:40:35.134Z,6.22
2023-04-19T06:45:32.029Z,6.50
2023-04-19T06:50:28.944Z,6.73
2023-04-19T06:55:25.529Z,6.81
2023-04-19T07:00:23.075Z,6.65
2023-04-19T07:05:19.526Z,6.76
2023-04-19T07:10:16.401Z,6.60
2023-04-19T07:15:12.990Z,6.83
2023-04-19T07:20:09.579Z,6.73
2023-04-19T07:25:06.240Z,6.95
2023-04-19T07:30:02.648Z,7.29
2023-04-19T07:34:59.121Z,7.23
2023-04-19T07:39:55.466Z,7.45
2023-04-19T07:44:51.969Z,7.79
2023-04-19T07:49:52.562Z,8.54
2023-04-19T07:54:49.099Z,8.36
2023-04-19T07:59:45.487Z,8.38
2023-04-19T08:04:42.315Z,8.05
2023-04-19T08:09:38.978Z,8.46
2023-04-19T08:14:43.770Z,8.59
2023-04-19T08:19:44.150Z,8.61
2023-04-19T08:24:40.478Z,9.21
2023-04-19T08:29:38.794Z,9.76
2023-04-19T08:34:39.029Z,9.70
2023-04-19T08:39:35.951Z,9.62
2023-04-19T08:44:36.858Z,10.18
2023-04-19T08:49:42.636Z,10.48
2023-04-19T08:54:41.086Z,10.73
2023-04-19T08:59:37.420Z,10.89
2023-04-19T09:04:37.384Z,10.42
2023-04-19T09:09:42.972Z,10.63
2023-04-19T09:19:48.838Z,10.40
2023-04-19T09:25:23.968Z,10.20
2023-04-19T09:30:03.640Z,10.34
2023-04-19T09:35:00.270Z,10.87
2023-04-19T09:39:59.541Z,11.80
2023-04-19T09:50:22.588Z,12.24
2023-04-19T09:55:27.488Z,12.26
2023-04-19T10:00:25.202Z,12.12
2023-04-19T10:05:23.072Z,12.26
2023-04-19T10:10:22.563Z,11.51
2023-04-19T10:15:23.482Z,11.93
2023-04-19T10:20:32.584Z,12.13
2023-04-19T10:25:30.867Z,12.82
2023-04-19T10:30:27.495Z,12.46
2023-04-19T10:35:36.112Z,11.95
2023-04-19T10:40:51.322Z,12.19
2023-04-19T10:45:47.834Z,12.35
2023-04-19T10:51:03.502Z,13.05
2023-04-19T10:55:59.834Z,12.73
2023-04-19T11:01:41.080Z,13.02
2023-04-19T11:06:38.938Z,13.32
2023-04-19T11:11:35.873Z,13.43
2023-04-19T11:16:45.112Z,13.31
2023-04-19T11:21:42.745Z,13.32
2023-04-19T11:26:39.409Z,13.06
2023-04-19T11:31:36.200Z,13.30
2023-04-19T11:36:33.911Z,13.70
2023-04-19T11:41:30.356Z,13.59
2023-04-19T11:46:26.758Z,13.33
2023-04-19T11:51:23.685Z,13.48
2023-04-19T11:56:20.323Z,13.49
2023-04-19T12:01:20.311Z,13.47
2023-04-19T12:06:24.418Z,13.90
2023-04-19T12:11:24.409Z,14.10
2023-04-19T12:16:28.749Z,14.20
2023-04-19T12:21:29.366Z,14.23
2023-04-19T12:26:29.327Z,13.95
2023-04-19T12:31:26.667Z,13.68
2023-04-19T12:36:23.083Z,13.51
2023-04-19T12:41:19.441Z,13.34
2023-04-19T12:46:15.921Z,13.37
2023-04-19T12:51:12.448Z,13.31
2023-04-19T12:56:08.772Z,13.38
2023-04-19T13:01:06.160Z,13.87
2023-04-19T13:06:03.775Z,14.22
2023-04-19T13:11:00.131Z,14.08
2023-04-19T13:15:56.522Z,14.01
2023-04-19T13:20:54.001Z,13.94
2023-04-19T13:25:50.491Z,13.84
2023-04-19T13:30:46.888Z,13.88
2023-04-19T13:35:45.294Z,13.85
2023-04-19T13:40:41.679Z,14.21
2023-04-19T13:45:38.014Z,14.61
2023-04-19T13:50:34.473Z,14.17
2023-04-19T13:55:30.941Z,15.14
2023-04-19T14:00:27.949Z,14.31
2023-04-19T14:05:24.356Z,13.78
2023-04-19T14:10:20.754Z,14.18
2023-04-19T14:15:17.087Z,14.13
2023-04-19T14:20:13.420Z,14.09
2023-04-19T14:25:10.226Z,13.87
2023-04-19T14:30:08.205Z,14.34
2023-04-19T14:35:04.954Z,13.90
2023-04-19T14:40:01.360Z,14.17
2023-04-19T14:44:58.340Z,13.86
2023-04-19T14:49:54.694Z,14.05
2023-04-19T14:54:51.228Z,13.16
2023-04-19T14:59:47.596Z,12.40
2023-04-19T15:04:44.396Z,13.06
2023-04-19T15:09:41.570Z,13.18
2023-04-19T15:14:38.700Z,13.57
2023-04-19T15:19:35.076Z,12.94
2023-04-19T15:24:34.020Z,13.27
2023-04-19T15:29:30.368Z,13.26
2023-04-19T15:34:26.843Z,13.18
2023-04-19T15:39:23.167Z,12.79
2023-04-19T15:44:19.854Z,12.51
2023-04-19T15:49:16.519Z,12.32
2023-04-19T15:54:14.523Z,12.49
2023-04-19T15:59:10.939Z,12.44
2023-04-19T16:04:07.619Z,12.66
2023-04-19T16:09:04.403Z,12.20
2023-04-19T16:14:00.723Z,12.09
2023-04-19T16:18:57.057Z,12.08
2023-04-19T16:23:53.448Z,12.11
2023-04-19T16:28:49.884Z,12.49
2023-04-19T16:33:46.272Z,13.59
2023-04-19T16:38:42.642Z,14.55
2023-04-19T16:43:38.982Z,13.22
2023-04-19T16:48:35.746Z,12.14
2023-04-19T16:53:32.339Z,11.98
2023-04-19T16:58:28.700Z,16.96
2023-04-19T17:03:25.756Z,20.95
2023-04-19T17:08:22.682Z,22.24
2023-04-19T17:13:19.151Z,22.30
2023-04-19T17:18:15.625Z,21.88
2023-04-19T17:23:12.002Z,20.11
2023-04-19T17:28:08.311Z,20.58
2023-04-19T17:33:04.705Z,15.96
2023-04-19T17:38:01.191Z,13.73
2023-04-19T17:42:57.513Z,11.91
2023-04-19T17:47:56.186Z,11.12
2023-04-19T17:52:54.551Z,10.51
2023-04-19T17:57:50.925Z,11.25
2023-04-19T18:02:47.372Z,11.18
2023-04-19T18:07:43.878Z,10.63
2023-04-19T18:12:40.263Z,10.36
2023-04-19T18:17:36.695Z,10.01
2023-04-19T18:22:33.079Z,9.74
2023-04-19T18:27:31.112Z,9.46
2023-04-19T18:32:30.083Z,9.49
2023-04-19T18:37:26.750Z,9.30
2023-04-19T18:42:23.848Z,9.28
2023-04-19T18:47:20.583Z,9.21
2023-04-19T18:52:17.941Z,9.28
2023-04-19T18:57:23.048Z,9.26
2023-04-19T19:02:19.723Z,9.34
2023-04-19T19:07:34.283Z,9.31
2023-04-19T19:12:31.741Z,9.07
2023-04-19T19:17:28.516Z,9.18
2023-04-19T19:22:28.216Z,9.26
2023-04-19T19:27:25.426Z,9.24
2023-04-19T19:32:22.039Z,9.02
2023-04-19T19:37:18.442Z,9.02
2023-04-19T19:42:18.603Z,9.01
2023-04-19T19:47:17.005Z,8.86
2023-04-19T19:52:13.594Z,8.82
2023-04-19T19:58:06.876Z,8.70
2023-04-19T20:02:26.870Z,8.64
2023-04-19T20:07:37.383Z,8.52
2023-04-19T20:12:42.410Z,8.34
2023-04-19T20:17:41.672Z,8.28
2023-04-19T20:22:38.538Z,8.28
2023-04-19T20:27:34.902Z,8.22
2023-04-19T20:32:31.351Z,8.18
2023-04-19T20:37:29.810Z,8.07
2023-04-19T20:42:26.733Z,7.95
2023-04-19T20:47:24.851Z,7.79
2023-04-19T20:52:21.167Z,7.81
2023-04-19T20:57:17.564Z,7.68
2023-04-19T21:02:13.947Z,7.52
2023-04-19T21:07:10.684Z,7.39
2023-04-19T21:12:07.139Z,7.57
2023-04-19T21:17:03.820Z,7.58
2023-04-19T21:22:00.216Z,7.47
2023-04-19T21:26:57.663Z,7.45
2023-04-19T21:31:54.194Z,7.35
2023-04-19T21:36:50.886Z,7.35
2023-04-19T21:41:47.272Z,7.38
2023-04-19T21:46:43.689Z,7.41
2023-04-19T21:51:40.120Z,7.45
2023-04-19T21:56:37.340Z,7.50
2023-04-19T22:01:34.120Z,7.48
2023-04-19T22:06:31.501Z,7.26
2023-04-19T22:11:29.000Z,7.17
2023-04-19T22:16:28.050Z,7.06
2023-04-19T22:21:25.602Z,7.01
2023-04-19T22:26:22.313Z,7.10
2023-04-19T22:31:19.325Z,7.19
2023-04-19T22:36:15.846Z,7.17
2023-04-19T22:41:12.176Z,7.20
2023-04-19T22:46:08.583Z,7.31
2023-04-19T22:51:04.968Z,7.37
2023-04-19T22:56:01.311Z,7.29
2023-04-19T23:00:57.720Z,7.25
2023-04-19T23:05:54.331Z,7.27
2023-04-19T23:10:51.931Z,7.28
2023-04-19T23:15:48.332Z,7.26
2023-04-19T23:20:44.666Z,7.22
2023-04-19T23:25:41.082Z,7.27
2023-04-19T23:30:37.520Z,7.10
2023-04-19T23:35:34.214Z,7.09
2023-04-19T23:40:30.792Z,7.05
2023-04-19T23:45:27.195Z,7.02
2023-04-19T23:50:23.692Z,7.06
2023-04-19T23:55:22.103Z,7.06
